GAP2859 RPLL-RPVM
Flight info
| Callsign | GAP2859 |
|---|---|
| Flight time | 0h 54m |
| Altitude | 37000 |
| Route | IPATA2R IPATA W25 BATAY BATAY3P |
| Aircraft | A320/M-SDE3FGHIRWY/LB1 |
Departure
| Time | 2026-05-03 21:39 |
|---|---|
| Airport | Ninoy Aquino International Airport (RPLL) |
Arrival
| Time | 2026-05-03 22:34 |
|---|---|
| Airport | Mactan Cebu International Airport (RPVM) |
| Time | Latitude | Longitude | Altitude | Speed | Heading |
|---|---|---|---|---|---|
| 2026-05-03 20:59 | 14.50909 | 121.01412 | 69 ft | 0 kts | 330° |
| 2026-05-03 21:26 | 14.50895 | 121.01421 | 59 ft | 4 kts | 330° |
| 2026-05-03 21:26 | 14.50872 | 121.01434 | 60 ft | 4 kts | 330° |
| 2026-05-03 21:26 | 14.50852 | 121.01445 | 68 ft | 4 kts | 323° |
| 2026-05-03 21:26 | 14.50839 | 121.01464 | 65 ft | 4 kts | 268° |
| 2026-05-03 21:27 | 14.50842 | 121.01481 | 62 ft | 3 kts | 240° |
| 2026-05-03 21:27 | 14.50829 | 121.01457 | 68 ft | 4 kts | 240° |
| 2026-05-03 21:27 | 14.50816 | 121.01433 | 68 ft | 4 kts | 240° |
| 2026-05-03 21:27 | 14.50802 | 121.01409 | 68 ft | 4 kts | 240° |
| 2026-05-03 21:28 | 14.50789 | 121.01385 | 68 ft | 4 kts | 240° |
| 2026-05-03 21:28 | 14.50775 | 121.01361 | 59 ft | 4 kts | 240° |
| 2026-05-03 21:28 | 14.50762 | 121.01336 | 62 ft | 3 kts | 240° |
| 2026-05-03 21:28 | 14.50760 | 121.01332 | 68 ft | 0 kts | 240° |
| 2026-05-03 21:34 | 14.50757 | 121.01329 | 68 ft | 4 kts | 237° |
| 2026-05-03 21:34 | 14.50715 | 121.01316 | 62 ft | 6 kts | 171° |
| 2026-05-03 21:34 | 14.50656 | 121.01293 | 65 ft | 13 kts | 229° |
| 2026-05-03 21:34 | 14.50613 | 121.01220 | 69 ft | 11 kts | 240° |
| 2026-05-03 21:35 | 14.50574 | 121.01149 | 66 ft | 12 kts | 240° |
| 2026-05-03 21:35 | 14.50529 | 121.01068 | 64 ft | 14 kts | 240° |
| 2026-05-03 21:35 | 14.50479 | 121.00978 | 69 ft | 15 kts | 240° |
| 2026-05-03 21:35 | 14.50421 | 121.00875 | 61 ft | 18 kts | 240° |
| 2026-05-03 21:36 | 14.50352 | 121.00750 | 59 ft | 22 kts | 240° |
| 2026-05-03 21:36 | 14.50271 | 121.00605 | 58 ft | 25 kts | 240° |
| 2026-05-03 21:36 | 14.50180 | 121.00443 | 64 ft | 27 kts | 240° |
| 2026-05-03 21:36 | 14.50085 | 121.00271 | 63 ft | 28 kts | 240° |
| 2026-05-03 21:37 | 14.49991 | 121.00101 | 62 ft | 25 kts | 240° |
| 2026-05-03 21:37 | 14.49920 | 120.99979 | 65 ft | 14 kts | 226° |
| 2026-05-03 21:37 | 14.49851 | 120.99981 | 69 ft | 9 kts | 148° |
| 2026-05-03 21:37 | 14.49809 | 121.00018 | 69 ft | 7 kts | 119° |
| 2026-05-03 21:38 | 14.49815 | 121.00061 | 65 ft | 5 kts | 65° |
| 2026-05-03 21:38 | 14.49835 | 121.00097 | 61 ft | 11 kts | 60° |
| 2026-05-03 21:38 | 14.49954 | 121.00318 | 62 ft | 70 kts | 60° |
| 2026-05-03 21:38 | 14.50307 | 121.00949 | 63 ft | 130 kts | 60° |
| 2026-05-03 21:39 | 14.50834 | 121.01913 | 162 ft | 169 kts | 61° |
| 2026-05-03 21:39 | 14.51415 | 121.02959 | 829 ft | 171 kts | 60° |
| 2026-05-03 21:39 | 14.52023 | 121.04037 | 1506 ft | 175 kts | 60° |
| 2026-05-03 21:39 | 14.52651 | 121.05165 | 1972 ft | 192 kts | 59° |
| 2026-05-03 21:40 | 14.53362 | 121.06449 | 2208 ft | 220 kts | 59° |
| 2026-05-03 21:40 | 14.54164 | 121.07896 | 2657 ft | 243 kts | 60° |
| 2026-05-03 21:40 | 14.55028 | 121.09462 | 3326 ft | 256 kts | 60° |
| 2026-05-03 21:40 | 14.55916 | 121.11067 | 4216 ft | 260 kts | 60° |
| 2026-05-03 21:41 | 14.56799 | 121.12705 | 5116 ft | 263 kts | 65° |
| 2026-05-03 21:41 | 14.57354 | 121.14513 | 5961 ft | 267 kts | 79° |
| 2026-05-03 21:41 | 14.57578 | 121.16433 | 6795 ft | 271 kts | 83° |
| 2026-05-03 21:41 | 14.57792 | 121.18373 | 7589 ft | 275 kts | 83° |
| 2026-05-03 21:42 | 14.58016 | 121.20349 | 8400 ft | 279 kts | 83° |
| 2026-05-03 21:42 | 14.58247 | 121.22350 | 9192 ft | 282 kts | 83° |
| 2026-05-03 21:42 | 14.58239 | 121.24383 | 9941 ft | 287 kts | 99° |
| 2026-05-03 21:42 | 14.57609 | 121.26350 | 10564 ft | 296 kts | 116° |
| 2026-05-03 21:43 | 14.56313 | 121.28103 | 10765 ft | 322 kts | 137° |
| 2026-05-03 21:43 | 14.54471 | 121.29550 | 11074 ft | 340 kts | 142° |
| 2026-05-03 21:43 | 14.52549 | 121.30998 | 11701 ft | 345 kts | 142° |
| 2026-05-03 21:43 | 14.50600 | 121.32467 | 12376 ft | 348 kts | 142° |
| 2026-05-03 21:44 | 14.48648 | 121.33951 | 13057 ft | 350 kts | 141° |
| 2026-05-03 21:44 | 14.46680 | 121.35456 | 13731 ft | 353 kts | 141° |
| 2026-05-03 21:44 | 14.44703 | 121.36972 | 14294 ft | 356 kts | 141° |
| 2026-05-03 21:44 | 14.42707 | 121.38506 | 14871 ft | 359 kts | 142° |
| 2026-05-03 21:45 | 14.40693 | 121.40053 | 15427 ft | 362 kts | 142° |
| 2026-05-03 21:45 | 14.38664 | 121.41610 | 15985 ft | 366 kts | 142° |
| 2026-05-03 21:45 | 14.36608 | 121.43183 | 16520 ft | 370 kts | 142° |
| 2026-05-03 21:45 | 14.34531 | 121.44772 | 17077 ft | 373 kts | 142° |
| 2026-05-03 21:46 | 14.32445 | 121.46370 | 17611 ft | 376 kts | 142° |
| 2026-05-03 21:46 | 14.30333 | 121.47990 | 18155 ft | 380 kts | 142° |
| 2026-05-03 21:46 | 14.28206 | 121.49620 | 18612 ft | 383 kts | 142° |
| 2026-05-03 21:46 | 14.26057 | 121.51265 | 19068 ft | 386 kts | 142° |
| 2026-05-03 21:47 | 14.23891 | 121.52915 | 19520 ft | 388 kts | 143° |
| 2026-05-03 21:47 | 14.21717 | 121.54567 | 20029 ft | 389 kts | 143° |
| 2026-05-03 21:47 | 14.19528 | 121.56230 | 20480 ft | 391 kts | 143° |
| 2026-05-03 21:47 | 14.17337 | 121.57897 | 20946 ft | 393 kts | 143° |
| 2026-05-03 21:48 | 14.15131 | 121.59578 | 21418 ft | 395 kts | 143° |
| 2026-05-03 21:48 | 14.12912 | 121.61268 | 21815 ft | 398 kts | 143° |
| 2026-05-03 21:48 | 14.10678 | 121.62967 | 22230 ft | 402 kts | 143° |
| 2026-05-03 21:48 | 14.08411 | 121.64691 | 22595 ft | 406 kts | 143° |
| 2026-05-03 21:49 | 14.06144 | 121.66420 | 23083 ft | 406 kts | 143° |
| 2026-05-03 21:49 | 14.03896 | 121.68140 | 23475 ft | 409 kts | 143° |
| 2026-05-03 21:49 | 14.01583 | 121.69908 | 23877 ft | 410 kts | 143° |
| 2026-05-03 21:49 | 13.99277 | 121.71673 | 24149 ft | 415 kts | 143° |
| 2026-05-03 21:50 | 13.96946 | 121.73450 | 24439 ft | 418 kts | 143° |
| 2026-05-03 21:50 | 13.94630 | 121.75211 | 24741 ft | 421 kts | 143° |
| 2026-05-03 21:50 | 13.92265 | 121.77008 | 25038 ft | 425 kts | 143° |
| 2026-05-03 21:50 | 13.89881 | 121.78819 | 25369 ft | 427 kts | 144° |
| 2026-05-03 21:51 | 13.87485 | 121.80640 | 25665 ft | 430 kts | 144° |
| 2026-05-03 21:51 | 13.85070 | 121.82477 | 25984 ft | 432 kts | 144° |
| 2026-05-03 21:51 | 13.82643 | 121.84317 | 26268 ft | 435 kts | 144° |
| 2026-05-03 21:51 | 13.80196 | 121.86170 | 26566 ft | 438 kts | 144° |
| 2026-05-03 21:52 | 13.77737 | 121.88029 | 26835 ft | 441 kts | 144° |
| 2026-05-03 21:52 | 13.75252 | 121.89904 | 27115 ft | 443 kts | 144° |
| 2026-05-03 21:52 | 13.72762 | 121.91779 | 27409 ft | 446 kts | 144° |
| 2026-05-03 21:52 | 13.70251 | 121.93669 | 27687 ft | 449 kts | 144° |
| 2026-05-03 21:53 | 13.67727 | 121.95573 | 27977 ft | 451 kts | 144° |
| 2026-05-03 21:53 | 13.65184 | 121.97492 | 28273 ft | 453 kts | 144° |
| 2026-05-03 21:53 | 13.62636 | 121.99412 | 28566 ft | 456 kts | 144° |
| 2026-05-03 21:53 | 13.60076 | 122.01339 | 28846 ft | 458 kts | 144° |
| 2026-05-03 21:54 | 13.57499 | 122.03275 | 29136 ft | 460 kts | 144° |
| 2026-05-03 21:54 | 13.54907 | 122.05221 | 29385 ft | 463 kts | 144° |
| 2026-05-03 21:54 | 13.52302 | 122.07177 | 29644 ft | 465 kts | 144° |
| 2026-05-03 21:54 | 13.49690 | 122.09142 | 29903 ft | 467 kts | 144° |
| 2026-05-03 21:55 | 13.47062 | 122.11121 | 30163 ft | 468 kts | 144° |
| 2026-05-03 21:55 | 13.44436 | 122.13099 | 30407 ft | 469 kts | 144° |
| 2026-05-03 21:55 | 13.41806 | 122.15082 | 30655 ft | 470 kts | 144° |
| 2026-05-03 21:55 | 13.39168 | 122.17072 | 30895 ft | 471 kts | 144° |
| 2026-05-03 21:56 | 13.36520 | 122.19064 | 31135 ft | 472 kts | 144° |
| 2026-05-03 21:56 | 13.33870 | 122.21053 | 31430 ft | 472 kts | 144° |
| 2026-05-03 21:56 | 13.31231 | 122.23034 | 31804 ft | 469 kts | 145° |
| 2026-05-03 21:56 | 13.28608 | 122.25001 | 32214 ft | 466 kts | 144° |
| 2026-05-03 21:57 | 13.25995 | 122.26961 | 32585 ft | 464 kts | 144° |
| 2026-05-03 21:57 | 13.23397 | 122.28909 | 32929 ft | 463 kts | 145° |
| 2026-05-03 21:57 | 13.20806 | 122.30853 | 33264 ft | 461 kts | 145° |
| 2026-05-03 21:57 | 13.18219 | 122.32795 | 33626 ft | 460 kts | 145° |
| 2026-05-03 21:58 | 13.15632 | 122.34737 | 33969 ft | 459 kts | 145° |
| 2026-05-03 21:58 | 13.13064 | 122.36664 | 34260 ft | 458 kts | 145° |
| 2026-05-03 21:58 | 13.11360 | 122.37941 | 34440 ft | 458 kts | 145° |
| 2026-05-03 21:58 | 13.07919 | 122.40518 | 34805 ft | 458 kts | 145° |
| 2026-05-03 21:59 | 13.06217 | 122.41793 | 34973 ft | 457 kts | 145° |
| 2026-05-03 21:59 | 13.03646 | 122.43718 | 35217 ft | 457 kts | 145° |
| 2026-05-03 21:59 | 13.01076 | 122.45641 | 35472 ft | 457 kts | 145° |
| 2026-05-03 21:59 | 12.98512 | 122.47557 | 35726 ft | 457 kts | 145° |
| 2026-05-03 22:00 | 12.95942 | 122.49480 | 35984 ft | 456 kts | 145° |
| 2026-05-03 22:00 | 12.93373 | 122.51398 | 36230 ft | 455 kts | 145° |
| 2026-05-03 22:00 | 12.90820 | 122.53308 | 36453 ft | 455 kts | 145° |
| 2026-05-03 22:00 | 12.88261 | 122.55226 | 36662 ft | 456 kts | 145° |
| 2026-05-03 22:01 | 12.85703 | 122.57141 | 36861 ft | 457 kts | 145° |
| 2026-05-03 22:01 | 12.83136 | 122.59063 | 36916 ft | 456 kts | 145° |
| 2026-05-03 22:01 | 12.78026 | 122.62881 | 36917 ft | 454 kts | 145° |
| 2026-05-03 22:02 | 12.72917 | 122.66699 | 36925 ft | 454 kts | 145° |
| 2026-05-03 22:02 | 12.67815 | 122.70503 | 36923 ft | 454 kts | 145° |
| 2026-05-03 22:03 | 12.62706 | 122.74313 | 36918 ft | 453 kts | 145° |
| 2026-05-03 22:03 | 12.57611 | 122.78108 | 36930 ft | 453 kts | 146° |
| 2026-05-03 22:04 | 12.52514 | 122.81907 | 36931 ft | 454 kts | 145° |
| 2026-05-03 22:04 | 12.47410 | 122.85714 | 36926 ft | 454 kts | 145° |
| 2026-05-03 22:05 | 12.42305 | 122.89508 | 36934 ft | 454 kts | 145° |
| 2026-05-03 22:05 | 12.37197 | 122.93308 | 36936 ft | 454 kts | 145° |
| 2026-05-03 22:06 | 12.32092 | 122.97106 | 36932 ft | 454 kts | 145° |
| 2026-05-03 22:06 | 12.26991 | 123.00895 | 36928 ft | 454 kts | 145° |
| 2026-05-03 22:07 | 12.21907 | 123.04660 | 36924 ft | 454 kts | 145° |
| 2026-05-03 22:07 | 12.16804 | 123.08457 | 36930 ft | 454 kts | 145° |
| 2026-05-03 22:08 | 12.11699 | 123.12262 | 36922 ft | 454 kts | 145° |
| 2026-05-03 22:08 | 12.06588 | 123.16056 | 36930 ft | 454 kts | 145° |
| 2026-05-03 22:09 | 12.01465 | 123.19849 | 36923 ft | 455 kts | 145° |
| 2026-05-03 22:10 | 11.93778 | 123.25545 | 36925 ft | 455 kts | 145° |
| 2026-05-03 22:10 | 11.88669 | 123.29329 | 36929 ft | 453 kts | 145° |
| 2026-05-03 22:11 | 11.83565 | 123.33104 | 36934 ft | 453 kts | 145° |
| 2026-05-03 22:11 | 11.78465 | 123.36881 | 36926 ft | 453 kts | 146° |
| 2026-05-03 22:12 | 11.73370 | 123.40655 | 36927 ft | 453 kts | 145° |
| 2026-05-03 22:12 | 11.68260 | 123.44424 | 36732 ft | 453 kts | 145° |
| 2026-05-03 22:12 | 11.65705 | 123.46309 | 36482 ft | 452 kts | 146° |
| 2026-05-03 22:13 | 11.63160 | 123.48188 | 36216 ft | 452 kts | 145° |
| 2026-05-03 22:13 | 11.60611 | 123.50070 | 35466 ft | 455 kts | 145° |
| 2026-05-03 22:13 | 11.58036 | 123.51973 | 34634 ft | 459 kts | 145° |
| 2026-05-03 22:13 | 11.55433 | 123.53893 | 33739 ft | 464 kts | 144° |
| 2026-05-03 22:14 | 11.52809 | 123.55829 | 32856 ft | 466 kts | 144° |
| 2026-05-03 22:14 | 11.50203 | 123.57755 | 32332 ft | 460 kts | 144° |
| 2026-05-03 22:14 | 11.47621 | 123.59665 | 31713 ft | 457 kts | 143° |
| 2026-05-03 22:14 | 11.45061 | 123.61557 | 31109 ft | 453 kts | 143° |
| 2026-05-03 22:15 | 11.42516 | 123.63433 | 30513 ft | 450 kts | 143° |
| 2026-05-03 22:15 | 11.39990 | 123.65295 | 29910 ft | 447 kts | 142° |
| 2026-05-03 22:15 | 11.37479 | 123.67143 | 29279 ft | 443 kts | 143° |
| 2026-05-03 22:15 | 11.34990 | 123.68971 | 28712 ft | 439 kts | 143° |
| 2026-05-03 22:16 | 11.32532 | 123.70784 | 28136 ft | 434 kts | 143° |
| 2026-05-03 22:16 | 11.30098 | 123.72581 | 27584 ft | 430 kts | 143° |
| 2026-05-03 22:16 | 11.27688 | 123.74360 | 27034 ft | 426 kts | 143° |
| 2026-05-03 22:16 | 11.25298 | 123.76120 | 26517 ft | 421 kts | 143° |
| 2026-05-03 22:17 | 11.22937 | 123.77857 | 25991 ft | 417 kts | 143° |
| 2026-05-03 22:17 | 11.20593 | 123.79582 | 25494 ft | 413 kts | 143° |
| 2026-05-03 22:17 | 11.18272 | 123.81275 | 25004 ft | 409 kts | 146° |
| 2026-05-03 22:17 | 11.15768 | 123.82602 | 24519 ft | 405 kts | 159° |
| 2026-05-03 22:18 | 11.13047 | 123.83302 | 24027 ft | 403 kts | 172° |
| 2026-05-03 22:18 | 11.10254 | 123.83350 | 23524 ft | 401 kts | 185° |
| 2026-05-03 22:18 | 11.07531 | 123.82772 | 22963 ft | 399 kts | 194° |
| 2026-05-03 22:18 | 11.04870 | 123.82017 | 22454 ft | 395 kts | 194° |
| 2026-05-03 22:19 | 11.02226 | 123.81272 | 21954 ft | 392 kts | 194° |
| 2026-05-03 22:19 | 10.99608 | 123.80539 | 21444 ft | 390 kts | 194° |
| 2026-05-03 22:19 | 10.97001 | 123.79811 | 20939 ft | 388 kts | 194° |
| 2026-05-03 22:19 | 10.94403 | 123.79086 | 20420 ft | 387 kts | 194° |
| 2026-05-03 22:20 | 10.91810 | 123.78363 | 19905 ft | 386 kts | 194° |
| 2026-05-03 22:20 | 10.89222 | 123.77641 | 19384 ft | 385 kts | 194° |
| 2026-05-03 22:20 | 10.86636 | 123.76919 | 18869 ft | 385 kts | 194° |
| 2026-05-03 22:20 | 10.84058 | 123.76202 | 18356 ft | 385 kts | 194° |
| 2026-05-03 22:21 | 10.81475 | 123.75482 | 17810 ft | 384 kts | 193° |
| 2026-05-03 22:21 | 10.78904 | 123.74766 | 17318 ft | 382 kts | 193° |
| 2026-05-03 22:21 | 10.76383 | 123.74062 | 16843 ft | 380 kts | 194° |
| 2026-05-03 22:21 | 10.73844 | 123.73353 | 16367 ft | 377 kts | 194° |
| 2026-05-03 22:22 | 10.71315 | 123.72649 | 15887 ft | 376 kts | 193° |
| 2026-05-03 22:22 | 10.68803 | 123.71951 | 15426 ft | 374 kts | 193° |
| 2026-05-03 22:22 | 10.66299 | 123.71255 | 14958 ft | 372 kts | 193° |
| 2026-05-03 22:22 | 10.63804 | 123.70561 | 14496 ft | 371 kts | 194° |
| 2026-05-03 22:23 | 10.61325 | 123.69872 | 14027 ft | 369 kts | 194° |
| 2026-05-03 22:23 | 10.58847 | 123.69179 | 13518 ft | 369 kts | 194° |
| 2026-05-03 22:23 | 10.56350 | 123.68482 | 13017 ft | 366 kts | 194° |
| 2026-05-03 22:23 | 10.53929 | 123.67807 | 12536 ft | 364 kts | 194° |
| 2026-05-03 22:24 | 10.51503 | 123.67131 | 12059 ft | 361 kts | 194° |
| 2026-05-03 22:24 | 10.49090 | 123.66461 | 11579 ft | 358 kts | 194° |
| 2026-05-03 22:24 | 10.46707 | 123.65799 | 11124 ft | 355 kts | 194° |
| 2026-05-03 22:24 | 10.44343 | 123.65141 | 10707 ft | 351 kts | 194° |
| 2026-05-03 22:25 | 10.41988 | 123.64487 | 10250 ft | 348 kts | 194° |
| 2026-05-03 22:25 | 10.39697 | 123.63852 | 10122 ft | 335 kts | 194° |
| 2026-05-03 22:25 | 10.37487 | 123.63288 | 10009 ft | 321 kts | 186° |
| 2026-05-03 22:25 | 10.35314 | 123.63309 | 9890 ft | 306 kts | 167° |
| 2026-05-03 22:26 | 10.33342 | 123.63998 | 9593 ft | 297 kts | 149° |
| 2026-05-03 22:26 | 10.31722 | 123.65251 | 9224 ft | 292 kts | 133° |
| 2026-05-03 22:26 | 10.30289 | 123.66717 | 8834 ft | 291 kts | 133° |
| 2026-05-03 22:26 | 10.28872 | 123.68166 | 8462 ft | 287 kts | 133° |
| 2026-05-03 22:27 | 10.27474 | 123.69592 | 7828 ft | 284 kts | 133° |
| 2026-05-03 22:27 | 10.26084 | 123.71010 | 7265 ft | 284 kts | 133° |
| 2026-05-03 22:27 | 10.24682 | 123.72438 | 6790 ft | 283 kts | 133° |
| 2026-05-03 22:27 | 10.23321 | 123.73818 | 6398 ft | 270 kts | 133° |
| 2026-05-03 22:28 | 10.22023 | 123.75134 | 6015 ft | 258 kts | 133° |
| 2026-05-03 22:28 | 10.20784 | 123.76392 | 5654 ft | 246 kts | 133° |
| 2026-05-03 22:28 | 10.19596 | 123.77597 | 5316 ft | 240 kts | 133° |
| 2026-05-03 22:28 | 10.18416 | 123.78794 | 4979 ft | 238 kts | 133° |
| 2026-05-03 22:29 | 10.17251 | 123.79979 | 4644 ft | 237 kts | 133° |
| 2026-05-03 22:29 | 10.16251 | 123.81277 | 4300 ft | 232 kts | 109° |
| 2026-05-03 22:29 | 10.16195 | 123.82864 | 3972 ft | 230 kts | 70° |
| 2026-05-03 22:29 | 10.17077 | 123.84207 | 3665 ft | 230 kts | 50° |
| 2026-05-03 22:30 | 10.18194 | 123.85359 | 3332 ft | 229 kts | 46° |
| 2026-05-03 22:30 | 10.19355 | 123.86455 | 3034 ft | 226 kts | 45° |
| 2026-05-03 22:30 | 10.20513 | 123.87538 | 2690 ft | 226 kts | 45° |
| 2026-05-03 22:30 | 10.21663 | 123.88630 | 2362 ft | 227 kts | 45° |
| 2026-05-03 22:31 | 10.22781 | 123.89709 | 2076 ft | 216 kts | 45° |
| 2026-05-03 22:31 | 10.23814 | 123.90721 | 1996 ft | 198 kts | 46° |
| 2026-05-03 22:31 | 10.24795 | 123.91695 | 1666 ft | 195 kts | 46° |
| 2026-05-03 22:31 | 10.25714 | 123.92615 | 1468 ft | 178 kts | 46° |
| 2026-05-03 22:32 | 10.26601 | 123.93456 | 1147 ft | 171 kts | 44° |
| 2026-05-03 22:32 | 10.27419 | 123.94250 | 869 ft | 156 kts | 46° |
| 2026-05-03 22:32 | 10.28150 | 123.95041 | 569 ft | 145 kts | 49° |
| 2026-05-03 22:32 | 10.28798 | 123.95791 | 377 ft | 139 kts | 53° |
| 2026-05-03 22:33 | 10.29380 | 123.96562 | 174 ft | 136 kts | 48° |
| 2026-05-03 22:33 | 10.30051 | 123.97233 | 45 ft | 130 kts | 41° |
| 2026-05-03 22:33 | 10.30610 | 123.97799 | 35 ft | 91 kts | 46° |
| 2026-05-03 22:33 | 10.30973 | 123.98155 | 35 ft | 55 kts | 45° |
| 2026-05-03 22:34 | 10.31156 | 123.98299 | 37 ft | 22 kts | 19° |
| 2026-05-03 22:34 | 10.31302 | 123.98348 | 38 ft | 23 kts | 6° |
| 2026-05-03 22:34 | 10.31329 | 123.98345 | 37 ft | 0 kts | 347° |
| 2026-05-03 22:35 | 10.31346 | 123.98341 | 37 ft | 6 kts | 347° |
| 2026-05-03 22:35 | 10.31401 | 123.98307 | 37 ft | 11 kts | 320° |
| 2026-05-03 22:35 | 10.31447 | 123.98254 | 35 ft | 10 kts | 313° |
| 2026-05-03 22:36 | 10.31491 | 123.98208 | 35 ft | 8 kts | 315° |
| 2026-05-03 22:36 | 10.31530 | 123.98168 | 37 ft | 7 kts | 314° |
| 2026-05-03 22:36 | 10.31554 | 123.98128 | 37 ft | 6 kts | 277° |
| 2026-05-03 22:36 | 10.31537 | 123.98079 | 35 ft | 9 kts | 235° |
| 2026-05-03 22:37 | 10.31497 | 123.98033 | 35 ft | 8 kts | 225° |
| 2026-05-03 22:37 | 10.31431 | 123.97966 | 37 ft | 16 kts | 224° |
| 2026-05-03 22:37 | 10.31371 | 123.97894 | 37 ft | 11 kts | 257° |
| 2026-05-03 22:37 | 10.31403 | 123.97840 | 35 ft | 7 kts | 317° |
| 2026-05-03 22:38 | 10.31409 | 123.97833 | 37 ft | 1 kts | 315° |
| 2026-05-03 22:38 | 10.31411 | 123.97831 | 35 ft | 0 kts | 315° |
| 2026-05-03 22:38 | 10.31415 | 123.97828 | 37 ft | 0 kts | 315° |